Time;durP1;ratioP1;P1;durP2;ratioP2;P2;SDS_P1;SDS_P2;PMS_P1;PMS_P2;Temp;Humidity;BMP_temperature;BMP_pressure;BME280_temperature;BME280_humidity;BME280_pressure;Samples;Min_cycle;Max_cycle;Signal;HPM_P1;HPM_P2
2022/05/24 00:01:13;;;;;;;5.70;1.25;;;;;;;18.58;49.60;96657.50;10516151;28;20493;-75
2022/05/24 00:06:34;;;;;;;4.50;1.27;;;;;;;18.59;49.74;96650.44;10544459;28;20105;-75
2022/05/24 00:11:55;;;;;;;4.47;1.27;;;;;;;18.59;49.67;96644.06;10543972;28;20042;-75
2022/05/24 00:17:15;;;;;;;3.97;1.00;;;;;;;18.62;49.85;96642.00;10529880;28;20036;-75
2022/05/24 00:22:38;;;;;;;7.32;1.40;;;;;;;18.60;49.69;96643.41;10488512;28;20427;-74
2022/05/24 00:27:59;;;;;;;2.80;1.20;;;;;;;18.59;50.03;96638.41;10528756;28;20044;-75
2022/05/24 00:33:23;;;;;;;2.78;1.13;;;;;;;18.59;49.89;96639.13;10529086;28;20043;-75
2022/05/24 00:38:44;;;;;;;3.20;0.95;;;;;;;18.54;50.05;96631.28;10501514;28;20048;-74
2022/05/24 00:44:09;;;;;;;7.15;1.27;;;;;;;18.57;50.07;96630.63;10529053;28;20055;-76
2022/05/24 00:49:31;;;;;;;3.65;1.15;;;;;;;18.59;50.23;96621.47;10527945;28;20048;-75
2022/05/24 00:54:52;;;;;;;3.38;0.98;;;;;;;18.60;50.17;96623.59;10513742;28;20485;-74
2022/05/24 01:00:18;;;;;;;4.10;1.55;;;;;;;18.54;50.12;96622.81;10500203;28;20044;-77
2022/05/24 01:05:39;;;;;;;4.93;1.40;;;;;;;18.52;50.45;96611.44;10472348;28;20379;-74
2022/05/24 01:11:00;;;;;;;4.57;1.00;;;;;;;18.53;50.31;96616.44;10539051;28;20474;-76
2022/05/24 01:16:20;;;;;;;1.30;0.68;;;;;;;18.54;50.61;96605.84;10526945;28;20119;-76
2022/05/24 01:21:41;;;;;;;5.00;0.90;;;;;;;18.63;50.44;96603.88;10498144;28;20044;-77
2022/05/24 01:27:03;;;;;;;3.53;0.60;;;;;;;18.66;50.90;96603.25;10525993;28;20418;-77
2022/05/24 01:38:04;;;;;;;2.65;0.40;;;;;;;18.71;50.91;96613.22;10484720;28;20048;-76
2022/05/24 01:43:26;;;;;;;2.45;0.63;;;;;;;18.70;51.28;96625.22;10477122;28;20040;-76
2022/05/24 01:48:52;;;;;;;1.08;0.40;;;;;;;18.62;51.67;96636.34;10525482;28;20040;-76
2022/05/24 01:54:13;;;;;;;6.35;0.40;;;;;;;18.54;51.92;96632.00;10511304;28;20082;-76
2022/05/24 01:59:33;;;;;;;1.63;0.30;;;;;;;18.47;52.19;96621.25;10497423;28;20447;-77
2022/05/24 02:04:54;;;;;;;1.38;0.30;;;;;;;18.36;52.38;96622.44;10494008;28;20044;-76
2022/05/24 02:10:17;;;;;;;3.72;0.52;;;;;;;18.33;52.55;96627.31;10500571;28;20044;-76
2022/05/24 02:15:39;;;;;;;2.75;0.40;;;;;;;18.28;52.97;96628.66;10525594;28;20047;-77
2022/05/24 02:21:01;;;;;;;3.15;0.35;;;;;;;18.17;53.13;96633.38;10510974;28;20048;-76
2022/05/24 02:26:22;;;;;;;3.00;0.60;;;;;;;18.13;53.32;96641.03;10511140;28;20052;-76
2022/05/24 02:31:43;;;;;;;4.03;0.45;;;;;;;18.05;53.46;96643.69;10510341;28;20043;-76
2022/05/24 02:37:04;;;;;;;2.80;0.93;;;;;;;17.97;53.77;96647.09;10524562;28;20052;-76
2022/05/24 02:42:25;;;;;;;3.05;0.50;;;;;;;17.91;54.01;96639.19;10496407;28;20043;-75
2022/05/24 02:47:46;;;;;;;2.83;0.52;;;;;;;17.89;54.13;96635.63;10510005;28;20043;-75
2022/05/24 02:53:07;;;;;;;1.73;0.50;;;;;;;17.83;54.36;96638.31;10513293;28;20056;-75
2022/05/24 02:58:27;;;;;;;1.40;0.50;;;;;;;17.80;54.74;96651.66;10495895;28;20409;-76
2022/05/24 03:03:49;;;;;;;2.10;0.40;;;;;;;17.73;54.86;96650.81;10524101;28;20056;-77
2022/05/24 03:14:50;;;;;;;2.65;0.55;;;;;;;17.81;55.07;96649.56;10508545;28;20090;-77
2022/05/24 03:20:11;;;;;;;4.60;0.77;;;;;;;17.84;55.12;96651.75;10475569;28;20043;-75
2022/05/24 03:25:32;;;;;;;1.27;0.30;;;;;;;17.97;55.01;96664.75;10495301;28;20032;-75
2022/05/24 03:30:53;;;;;;;1.92;0.50;;;;;;;18.11;55.23;96667.13;10480287;28;20420;-75
2022/05/24 03:36:14;;;;;;;2.20;0.57;;;;;;;18.14;55.30;96671.44;10492094;28;20478;-76
2022/05/24 03:41:35;;;;;;;1.65;0.40;;;;;;;18.15;55.26;96658.78;10488452;28;20040;-77
2022/05/24 03:46:56;;;;;;;1.65;0.40;;;;;;;18.08;55.61;96668.50;10492533;28;20044;-78
2022/05/24 03:52:17;;;;;;;2.17;0.47;;;;;;;18.13;55.57;96674.94;10475070;28;20060;-77
2022/05/24 04:03:17;;;;;;;3.72;0.30;;;;;;;18.17;56.27;96687.03;10531172;28;20047;-75
2022/05/24 04:08:39;;;;;;;3.72;0.77;;;;;;;18.28;56.11;96693.63;10530397;28;20044;-76
2022/05/24 04:13:59;;;;;;;2.80;0.40;;;;;;;18.59;56.10;96690.00;10515348;28;20040;-77
2022/05/24 04:19:21;;;;;;;2.30;0.55;;;;;;;19.01;55.67;96678.09;10516213;28;20044;-77
2022/05/24 04:24:42;;;;;;;1.70;0.40;;;;;;;19.26;55.29;96684.16;10501432;28;20113;-75
2022/05/24 04:30:04;;;;;;;2.05;0.35;;;;;;;19.32;54.90;96682.16;10515037;28;20040;-76
2022/05/24 04:35:25;;;;;;;1.50;0.40;;;;;;;19.37;54.92;96689.28;10515397;28;20478;-87
2022/05/24 04:47:06;;;;;;;1.98;0.55;;;;;;;19.94;54.48;96712.13;10499370;28;20490;-80
2022/05/24 04:52:07;;;;;;;1.92;0.50;;;;;;;20.09;54.26;96708.09;10512161;28;20474;-79
2022/05/24 04:57:27;;;;;;;2.00;0.30;;;;;;;20.06;54.43;96709.47;10500318;28;20511;-78
2022/05/24 05:02:48;;;;;;;0.80;0.40;;;;;;;20.28;54.44;96717.56;10527131;28;20036;-78
2022/05/24 05:08:08;;;;;;;2.80;0.50;;;;;;;20.60;54.17;96710.91;10511842;28;20048;-73
2022/05/24 05:13:30;;;;;;;2.10;0.40;;;;;;;21.03;53.42;96715.63;10501299;28;20047;-73
2022/05/24 05:18:51;;;;;;;2.75;0.50;;;;;;;21.30;52.60;96713.78;10496714;28;20052;-75
2022/05/24 05:24:12;;;;;;;2.72;0.52;;;;;;;21.63;52.60;96725.44;10519235;28;20036;-74
2022/05/24 05:35:13;;;;;;;1.15;0.30;;;;;;;22.21;51.21;96713.06;10499606;28;20043;-72
2022/05/24 05:40:35;;;;;;;4.82;0.40;;;;;;;22.73;49.81;96731.78;10522303;28;20063;-75
2022/05/24 05:45:57;;;;;;;5.07;0.75;;;;;;;23.26;48.27;96729.09;10474043;28;20496;-75
2022/05/24 05:51:19;;;;;;;1.98;0.50;;;;;;;24.60;46.91;96720.44;10497468;28;20109;-75
2022/05/24 05:56:42;;;;;;;3.22;0.50;;;;;;;27.05;41.98;96719.13;10525419;28;20044;-74
2022/05/24 06:02:05;;;;;;;3.20;0.43;;;;;;;29.10;38.88;96732.09;10511063;28;20040;-74
2022/05/24 06:07:26;;;;;;;1.98;0.47;;;;;;;31.28;34.91;96738.75;10511413;28;20040;-74
2022/05/24 06:12:47;;;;;;;3.83;0.40;;;;;;;33.58;31.24;96756.06;10491911;28;20040;-74
2022/05/24 06:18:08;;;;;;;2.33;0.40;;;;;;;35.62;27.75;96759.59;10524725;28;20044;-75
2022/05/24 06:23:29;;;;;;;2.50;0.50;;;;;;;38.47;23.78;96755.34;10523771;28;20040;-73
2022/05/24 06:28:50;;;;;;;5.15;0.70;;;;;;;41.67;19.72;96761.31;10507907;28;20051;-77
2022/05/24 06:34:11;;;;;;;4.53;0.70;;;;;;;42.45;18.99;96773.88;10523978;28;20436;-78
2022/05/24 06:39:32;;;;;;;;;;;;;;;37.82;20.02;96777.28;10497084;28;20048;-79
2022/05/24 06:44:53;;;;;;;2.30;0.68;;;;;;;33.89;23.46;96772.25;10472284;28;19920;-79
2022/05/24 06:50:14;;;;;;;2.53;0.43;;;;;;;31.34;26.76;96778.19;10467398;28;20541;-79
2022/05/24 06:55:37;;;;;;;3.83;0.50;;;;;;;29.40;29.69;96781.72;10506466;28;20425;-75
2022/05/24 07:06:38;;;;;;;1.95;0.50;;;;;;;32.23;31.20;96789.06;10514077;28;20086;-74
2022/05/24 07:12:00;;;;;;;1.30;0.28;;;;;;;35.48;24.92;96792.88;10523888;28;20040;-85
2022/05/24 07:17:21;;;;;;;4.60;0.50;;;;;;;35.12;23.95;96800.31;10495333;28;20048;-79
2022/05/24 07:22:42;;;;;;;1.75;0.30;;;;;;;30.91;26.92;96796.69;10523452;28;20074;-79
2022/05/24 07:28:03;;;;;;;109.45;6.75;;;;;;;28.42;29.24;96815.22;10495316;28;20083;-75
2022/05/24 07:33:24;;;;;;;3.77;0.60;;;;;;;26.53;32.17;96818.47;10495650;28;20040;-77
2022/05/24 07:38:44;;;;;;;2.08;0.43;;;;;;;25.57;33.83;96827.75;10502979;28;20685;-77
2022/05/24 07:49:45;;;;;;;1.70;0.50;;;;;;;25.14;36.99;96823.72;10508153;28;20547;-77
2022/05/24 07:55:06;;;;;;;3.03;0.50;;;;;;;25.67;36.88;96812.69;10502690;28;20051;-77
2022/05/24 08:00:27;;;;;;;3.05;0.40;;;;;;;25.65;37.02;96810.56;10502565;28;20055;-75
2022/05/24 08:05:48;;;;;;;0.80;0.30;;;;;;;25.63;37.47;96836.31;10501591;28;20051;-80
2022/05/24 08:11:09;;;;;;;2.37;0.50;;;;;;;26.63;37.88;96843.41;10487854;28;20570;-77
2022/05/24 08:16:31;;;;;;;4.60;0.60;;;;;;;29.43;36.39;96831.94;10485241;28;20290;-80
2022/05/24 08:21:52;;;;;;;1.17;0.60;;;;;;;29.82;33.60;96834.69;10495449;28;20470;-77
2022/05/24 08:27:14;;;;;;;2.47;0.50;;;;;;;28.30;34.25;96841.97;10500056;28;20444;-79
2022/05/24 08:32:35;;;;;;;;;;;;;;;27.31;35.30;96855.56;10516180;28;20043;-77
2022/05/24 08:37:56;;;;;;;1.42;0.47;;;;;;;26.43;36.41;96856.47;10515082;28;19920;-78
2022/05/24 08:43:42;;;;;;;3.42;0.50;;;;;;;26.15;37.09;96859.53;10501080;28;20040;-78
2022/05/24 08:49:07;;;;;;;2.30;0.60;;;;;;;25.53;38.87;96852.78;10503141;28;20051;-78
2022/05/24 08:54:38;;;;;;;2.97;0.63;;;;;;;25.80;38.81;96856.25;10514408;28;20056;-83
2022/05/24 09:00:02;;;;;;;7.60;0.60;;;;;;;25.79;39.67;96852.66;10500613;28;20055;-78
2022/05/24 09:05:35;;;;;;;3.22;0.57;;;;;;;26.29;39.28;96858.72;10500399;28;20089;-76
2022/05/24 09:11:07;;;;;;;;;;;;;;;26.87;38.09;96857.47;10514706;28;20065;-78
2022/05/24 09:17:00;;;;;;;1.40;0.50;;;;;;;27.58;37.39;96867.38;10513234;28;19920;-81
2022/05/24 09:22:22;;;;;;;3.55;0.70;;;;;;;26.75;36.63;96881.22;10524760;28;20052;-78
2022/05/24 09:27:51;;;;;;;3.10;0.52;;;;;;;27.14;36.93;96880.84;10499445;28;20040;-77
2022/05/24 09:33:24;;;;;;;3.50;0.60;;;;;;;27.09;37.02;96882.31;10497677;28;20040;-79
2022/05/24 09:38:44;;;;;;;4.07;0.57;;;;;;;26.95;36.37;96873.88;10494025;28;20105;-79
2022/05/24 09:44:17;;;;;;;2.42;0.82;;;;;;;26.14;37.30;96878.16;10512251;28;20040;-80
2022/05/24 09:49:38;;;;;;;1.75;0.50;;;;;;;25.50;38.01;96886.38;10499468;28;20051;-77
2022/05/24 09:55:00;;;;;;;3.30;0.50;;;;;;;24.92;39.01;96890.16;10511324;28;20135;-78
2022/05/24 10:00:23;;;;;;;3.42;0.50;;;;;;;24.30;39.58;96889.47;10511337;28;20044;-79
2022/05/24 10:05:45;;;;;;;3.85;0.60;;;;;;;24.19;41.02;96891.59;10512082;28;20044;-81
2022/05/24 10:11:17;;;;;;;1.85;0.50;;;;;;;24.64;41.51;96897.31;10511924;28;20395;-83
2022/05/24 10:17:08;;;;;;;5.32;0.65;;;;;;;25.59;40.81;96889.91;10526092;28;20040;-81
2022/05/24 10:22:37;;;;;;;4.30;0.73;;;;;;;25.60;39.80;96894.19;10511028;28;20366;-74
2022/05/24 10:28:37;;;;;;;5.50;0.73;;;;;;;25.38;40.12;96889.28;10510897;28;20051;-78
2022/05/24 10:39:53;;;;;;;2.17;0.60;;;;;;;25.02;41.10;96899.41;10523962;28;20048;-74
2022/05/24 10:45:16;;;;;;;1.80;0.45;;;;;;;25.06;41.72;96904.41;10524060;28;20047;-74
2022/05/24 10:50:41;;;;;;;4.18;0.90;;;;;;;24.61;42.19;96913.03;10510564;28;20040;-74
2022/05/24 10:56:07;;;;;;;2.05;0.70;;;;;;;24.25;44.41;96905.88;10481470;28;20076;-74
2022/05/24 11:01:34;;;;;;;5.20;0.70;;;;;;;24.46;44.69;96917.31;10482567;28;20441;-75
2022/05/24 11:07:02;;;;;;;1.63;0.50;;;;;;;23.93;46.32;96922.91;10468617;28;20071;-74
2022/05/24 11:12:28;;;;;;;1.98;0.40;;;;;;;23.67;47.00;96930.00;10496229;28;20043;-74
2022/05/24 11:17:49;;;;;;;3.92;0.73;;;;;;;23.52;47.03;96950.56;10491747;28;20040;-73
2022/05/24 11:23:14;;;;;;;3.53;0.80;;;;;;;23.58;48.14;96942.75;10493788;28;20417;-74
2022/05/24 11:28:35;;;;;;;5.32;0.73;;;;;;;23.92;47.60;96956.41;10477273;28;20044;-74
2022/05/24 11:33:57;;;;;;;2.53;1.00;;;;;;;24.00;47.18;96967.13;10490022;28;20044;-75
2022/05/24 11:39:25;;;;;;;2.50;1.00;;;;;;;24.50;46.60;96966.50;10476060;28;20052;-74
2022/05/24 11:44:45;;;;;;;2.28;0.85;;;;;;;24.94;44.74;96984.31;10483436;28;20274;-76
2022/05/24 11:50:30;;;;;;;1.83;0.80;;;;;;;24.92;44.67;96987.91;10522198;28;20044;-75
2022/05/24 11:55:54;;;;;;;3.47;0.90;;;;;;;24.88;45.55;96992.88;10516099;28;20047;-74
2022/05/24 12:01:15;;;;;;;2.63;0.98;;;;;;;24.98;45.59;96978.59;10513735;28;20427;-75
2022/05/24 12:12:21;;;;;;;2.63;0.77;;;;;;;24.90;46.59;96985.06;10511096;28;20048;-75
2022/05/24 12:17:51;;;;;;;1.63;0.75;;;;;;;24.52;46.98;96992.19;10488422;28;20478;-84
2022/05/24 12:23:14;;;;;;;9.20;1.00;;;;;;;23.83;48.13;97006.25;10467969;28;20040;-77
2022/05/24 12:28:53;;;;;;;2.08;0.70;;;;;;;23.21;49.17;97009.50;10475912;28;20060;-81
2022/05/24 12:34:14;;;;;;;2.33;0.60;;;;;;;22.54;50.23;97018.91;10473635;28;20041;-78
2022/05/24 12:39:35;;;;;;;2.38;0.90;;;;;;;22.24;51.34;97030.00;10492411;28;20032;-77
2022/05/24 12:44:59;;;;;;;1.95;0.77;;;;;;;22.24;51.65;97038.53;10490038;28;20051;-76
2022/05/24 12:50:37;;;;;;;1.95;0.82;;;;;;;22.28;52.32;97050.63;10482517;28;20048;-77
2022/05/24 12:56:02;;;;;;;2.55;0.60;;;;;;;22.12;51.82;97044.09;10528818;28;20055;-78
2022/05/24 13:01:31;;;;;;;2.85;0.80;;;;;;;21.76;53.04;97059.25;10524919;28;20084;-78
2022/05/24 13:06:51;;;;;;;9.55;1.23;;;;;;;21.62;53.51;97059.78;10458050;28;20041;-77
2022/05/24 13:12:12;;;;;;;2.15;0.65;;;;;;;21.29;54.19;97069.97;10471751;28;20367;-77
2022/05/24 13:17:39;;;;;;;2.22;0.50;;;;;;;21.08;54.81;97077.44;10457566;28;20398;-77
2022/05/24 13:23:03;;;;;;;5.53;0.60;;;;;;;20.60;55.33;97080.16;10444652;28;20055;-77
2022/05/24 13:28:39;;;;;;;1.33;0.40;;;;;;;20.35;56.09;97078.97;10457497;28;20071;-77
2022/05/24 13:34:24;;;;;;;2.35;0.50;;;;;;;20.15;56.51;97075.75;10483689;28;20045;-77
2022/05/24 13:39:44;;;;;;;2.33;0.47;;;;;;;19.80;56.85;97099.84;10506951;28;20051;-76
2022/05/24 13:45:26;;;;;;;1.58;0.50;;;;;;;19.42;58.95;97086.25;10514697;28;20032;-80
2022/05/24 13:50:47;;;;;;;2.40;0.45;;;;;;;19.39;58.73;97090.41;10478369;28;20482;-83
2022/05/24 13:56:21;;;;;;;1.60;0.45;;;;;;;19.42;59.12;97091.91;10444416;28;20049;-79
2022/05/24 14:01:42;;;;;;;1.80;0.50;;;;;;;19.45;59.42;97099.78;10450428;28;20098;-81
2022/05/24 14:07:06;;;;;;;2.50;0.40;;;;;;;19.63;59.34;97102.31;10450069;28;20040;-84
2022/05/24 14:12:27;;;;;;;0.90;0.40;;;;;;;19.87;59.02;97107.06;10465368;28;20040;-76
2022/05/24 14:17:49;;;;;;;2.03;0.40;;;;;;;20.05;58.74;97110.25;10487355;28;20048;-75
2022/05/24 14:23:10;;;;;;;3.03;0.47;;;;;;;20.24;58.30;97097.91;10478023;28;20057;-83
2022/05/24 14:28:32;;;;;;;2.13;0.50;;;;;;;20.15;57.86;97113.31;10459373;28;20474;-82
2022/05/24 14:33:53;;;;;;;2.85;0.40;;;;;;;20.09;58.34;97106.81;10492006;28;20044;-81
2022/05/24 14:39:14;;;;;;;1.73;0.38;;;;;;;19.85;58.26;97102.06;10450522;28;20051;-82
2022/05/24 14:44:35;;;;;;;2.78;0.45;;;;;;;19.58;58.53;97111.38;10466714;28;20044;-83
2022/05/24 14:49:56;;;;;;;1.75;0.30;;;;;;;19.29;58.92;97115.66;10459779;28;20041;-83
2022/05/24 14:55:23;;;;;;;3.33;0.47;;;;;;;19.09;59.86;97130.75;10471778;28;20481;-75
2022/05/24 15:00:45;;;;;;;3.05;0.55;;;;;;;18.96;60.01;97136.78;10508258;28;20127;-74
2022/05/24 15:06:08;;;;;;;1.77;0.47;;;;;;;18.76;60.13;97140.53;10506229;28;20036;-74
2022/05/24 15:17:08;;;;;;;6.30;0.90;;;;;;;18.52;61.34;97142.69;10503264;28;20443;-75
2022/05/24 15:22:31;;;;;;;2.67;0.57;;;;;;;18.37;61.48;97147.25;10508142;28;20050;-76
2022/05/24 15:27:52;;;;;;;3.03;0.47;;;;;;;18.19;61.17;97158.03;10491782;28;20048;-77
2022/05/24 15:33:13;;;;;;;2.00;0.43;;;;;;;18.07;61.54;97147.13;10507927;28;20374;-75
2022/05/24 15:38:34;;;;;;;4.10;0.57;;;;;;;18.18;62.15;97145.28;10506149;28;20121;-79
2022/05/24 15:43:56;;;;;;;1.10;0.45;;;;;;;18.20;62.16;97151.00;10472241;28;20032;-79
2022/05/24 15:49:16;;;;;;;2.60;0.70;;;;;;;18.19;62.20;97149.56;10493676;28;20047;-81
2022/05/24 15:54:38;;;;;;;2.28;0.60;;;;;;;18.08;63.64;97156.31;10499019;28;20459;-74
2022/05/24 15:59:59;;;;;;;4.13;0.80;;;;;;;17.89;63.37;97178.34;10474366;28;20047;-73
2022/05/24 16:11:06;;;;;;;3.13;0.75;;;;;;;17.77;63.94;97149.06;10490902;28;20066;-74
2022/05/24 16:16:27;;;;;;;2.20;0.43;;;;;;;17.71;64.05;97164.41;10473520;28;20653;-76
2022/05/24 16:21:48;;;;;;;1.33;0.60;;;;;;;17.81;63.70;97178.09;10501991;28;20114;-76
2022/05/24 16:27:10;;;;;;;4.88;0.60;;;;;;;17.87;63.40;97177.59;10472750;28;20067;-77
2022/05/24 16:32:31;;;;;;;3.35;1.30;;;;;;;17.97;63.14;97158.84;10487478;28;20043;-76
2022/05/24 16:37:52;;;;;;;1.40;0.60;;;;;;;18.04;63.54;97137.13;10473554;28;20044;-73
2022/05/24 16:43:13;;;;;;;1.75;0.32;;;;;;;17.97;63.37;97150.38;10473452;28;20051;-76
2022/05/24 16:48:36;;;;;;;2.08;0.45;;;;;;;17.96;63.47;97174.34;10473188;28;20048;-77
2022/05/24 16:53:58;;;;;;;3.78;0.38;;;;;;;17.93;63.36;97172.09;10473377;28;20106;-76
2022/05/24 16:59:19;;;;;;;1.10;0.50;;;;;;;17.67;63.63;97174.84;10459186;28;20048;-79
2022/05/24 17:04:40;;;;;;;1.67;0.60;;;;;;;17.55;63.65;97168.81;10472428;28;20041;-82
2022/05/24 17:10:00;;;;;;;1.45;0.32;;;;;;;17.29;64.05;97168.72;10474195;28;20478;-75
2022/05/24 17:15:22;;;;;;;1.23;0.50;;;;;;;17.17;64.41;97178.19;10499891;28;20040;-77
2022/05/24 17:20:45;;;;;;;1.88;0.50;;;;;;;17.15;64.83;97177.41;10472389;28;20048;-77
2022/05/24 17:26:06;;;;;;;1.42;0.45;;;;;;;17.30;65.51;97198.34;10486140;28;20044;-85
2022/05/24 17:31:28;;;;;;;2.05;0.30;;;;;;;17.32;65.22;97187.13;10471751;28;20406;-76
2022/05/24 17:36:49;;;;;;;0.90;0.30;;;;;;;17.46;64.80;97179.81;10485325;28;20056;-74
2022/05/24 17:42:11;;;;;;;1.90;0.40;;;;;;;17.65;64.86;97186.03;10470935;28;20036;-74
2022/05/24 17:47:32;;;;;;;1.95;0.32;;;;;;;17.89;64.31;97183.28;10484969;28;20045;-80
2022/05/24 17:52:52;;;;;;;2.30;0.38;;;;;;;17.95;64.19;97192.66;10470336;28;20102;-77
2022/05/24 17:58:13;;;;;;;2.35;0.43;;;;;;;18.01;63.88;97190.00;10498246;28;20051;-83
2022/05/24 18:03:34;;;;;;;0.82;0.40;;;;;;;17.84;63.63;97190.91;10484027;28;20040;-81
2022/05/24 18:08:54;;;;;;;0.70;0.40;;;;;;;17.70;64.04;97198.94;10497689;28;20052;-77
2022/05/24 18:14:15;;;;;;;3.28;0.47;;;;;;;17.60;64.32;97204.97;10483566;28;20040;-80
2022/05/24 18:19:36;;;;;;;2.10;0.35;;;;;;;17.43;64.45;97203.00;10468954;28;20036;-76
2022/05/24 18:25:00;;;;;;;2.55;0.40;;;;;;;17.36;64.49;97209.81;10483600;28;20032;-75
2022/05/24 18:36:05;;;;;;;1.95;0.80;;;;;;;17.02;65.19;97218.59;10475261;28;20040;-82
2022/05/24 18:41:27;;;;;;;1.52;0.50;;;;;;;16.85;65.29;97210.94;10469145;28;20505;-75
2022/05/24 18:46:48;;;;;;;1.52;0.80;;;;;;;16.75;66.16;97213.41;10468843;28;20048;-74
2022/05/24 18:52:08;;;;;;;1.30;0.70;;;;;;;16.66;66.12;97234.91;10482614;28;20048;-75
2022/05/24 18:57:29;;;;;;;3.15;0.55;;;;;;;16.55;66.21;97233.13;10459871;28;20040;-79
2022/05/24 19:02:52;;;;;;;1.88;0.63;;;;;;;16.43;66.60;97246.78;10482240;28;20044;-80
2022/05/24 19:08:13;;;;;;;5.45;1.05;;;;;;;16.35;66.98;97250.00;10507595;28;20111;-77
2022/05/24 19:13:34;;;;;;;1.70;0.60;;;;;;;16.23;67.02;97246.75;10523143;28;20044;-77
2022/05/24 19:18:55;;;;;;;1.10;0.60;;;;;;;16.06;68.16;97262.28;10523313;28;20097;-77
2022/05/24 19:24:16;;;;;;;2.22;0.73;;;;;;;15.99;68.26;97269.03;10537731;28;20040;-76
2022/05/24 19:29:38;;;;;;;2.35;0.60;;;;;;;15.94;68.71;97287.88;10496546;28;20052;-75
2022/05/24 19:34:59;;;;;;;2.08;0.80;;;;;;;15.85;68.69;97280.47;10503602;28;20126;-75
2022/05/24 19:46:45;;;;;;;3.10;0.80;;;;;;;15.86;69.87;97300.91;10525100;28;20047;-77
2022/05/24 19:52:12;;;;;;;4.28;1.10;;;;;;;15.91;70.10;97316.56;10544935;28;20401;-76
2022/05/24 19:57:33;;;;;;;1.83;0.70;;;;;;;15.91;70.57;97319.38;10495133;28;20543;-76
2022/05/24 20:03:22;;;;;;;6.13;0.90;;;;;;;15.94;70.01;97318.13;10524412;28;20044;-80
2022/05/24 20:08:43;;;;;;;2.13;0.90;;;;;;;15.96;70.46;97315.38;10500071;28;20063;-75
2022/05/24 20:14:04;;;;;;;1.58;0.90;;;;;;;15.96;70.68;97313.28;10503403;28;20082;-76
2022/05/24 20:19:25;;;;;;;1.50;0.65;;;;;;;15.99;70.83;97316.91;10508525;28;20063;-75
2022/05/24 20:24:45;;;;;;;1.33;0.60;;;;;;;15.91;70.94;97336.28;10505784;28;20047;-75
2022/05/24 20:30:07;;;;;;;4.03;0.73;;;;;;;15.88;71.46;97362.91;10540582;28;20036;-76
2022/05/24 20:35:28;;;;;;;2.65;1.05;;;;;;;15.80;71.10;97373.81;10497850;28;20083;-78
2022/05/24 20:40:49;;;;;;;4.57;1.20;;;;;;;15.76;71.73;97387.72;10525335;28;20447;-75
2022/05/24 20:46:13;;;;;;;3.28;1.15;;;;;;;15.78;71.80;97385.72;10520791;28;20044;-75
2022/05/24 20:51:42;;;;;;;2.30;0.85;;;;;;;15.75;72.40;97392.63;10492438;28;20052;-75
2022/05/24 20:57:30;;;;;;;1.60;0.80;;;;;;;15.76;71.91;97370.84;10444615;28;20494;-75
2022/05/24 21:02:55;;;;;;;1.67;0.75;;;;;;;15.77;71.87;97378.66;10422881;28;20041;-75
2022/05/24 21:08:35;;;;;;;4.05;0.88;;;;;;;15.76;72.30;97376.47;10452885;28;20045;-75
2022/05/24 21:14:06;;;;;;;3.28;0.70;;;;;;;15.74;72.29;97369.41;10443981;28;20040;-76
2022/05/24 21:19:35;;;;;;;4.18;0.70;;;;;;;15.74;72.26;97372.22;10428898;28;20059;-75
2022/05/24 21:31:31;;;;;;;3.22;0.90;;;;;;;15.79;72.25;97386.44;10451680;28;20372;-75
2022/05/24 21:36:52;;;;;;;2.10;0.73;;;;;;;15.79;72.18;97375.91;10445815;28;20645;-77
2022/05/24 21:42:22;;;;;;;1.38;0.70;;;;;;;15.81;72.31;97372.44;10447491;28;20533;-75
2022/05/24 21:47:50;;;;;;;2.65;0.80;;;;;;;15.78;71.96;97373.75;10460564;28;20045;-75
2022/05/24 21:53:13;;;;;;;2.42;0.80;;;;;;;15.72;72.33;97380.56;10480753;28;20116;-76
2022/05/24 21:58:34;;;;;;;2.75;1.05;;;;;;;15.64;72.29;97382.31;10510402;28;20052;-76
2022/05/24 22:04:23;;;;;;;1.17;0.70;;;;;;;15.54;71.89;97395.91;10510819;28;20134;-75
2022/05/24 22:10:12;;;;;;;2.30;0.70;;;;;;;15.54;71.97;97391.03;10531234;28;20044;-75
2022/05/24 22:16:01;;;;;;;2.08;0.80;;;;;;;15.53;72.35;97383.22;10530815;28;20040;-75
2022/05/24 22:21:51;;;;;;;1.05;0.70;;;;;;;15.53;72.33;97405.72;10510635;28;20048;-75
2022/05/24 22:27:40;;;;;;;3.10;0.70;;;;;;;15.54;72.62;97402.28;10519998;28;20044;-75
2022/05/24 22:33:29;;;;;;;2.40;0.60;;;;;;;15.52;72.26;97405.00;10509725;28;20053;-76
2022/05/24 22:39:18;;;;;;;5.05;0.60;;;;;;;15.54;72.23;97398.72;10509991;28;20145;-75
2022/05/24 22:45:08;;;;;;;1.40;0.70;;;;;;;15.54;72.07;97407.91;10520811;28;20390;-77
2022/05/24 22:50:30;;;;;;;2.67;0.75;;;;;;;15.56;72.06;97401.66;10511190;28;20069;-76
2022/05/24 22:56:21;;;;;;;2.03;0.63;;;;;;;15.52;72.10;97405.00;10475947;28;20052;-76
2022/05/24 23:02:11;;;;;;;1.00;0.57;;;;;;;15.56;71.98;97404.47;10509045;28;20048;-76
2022/05/24 23:08:00;;;;;;;2.40;0.57;;;;;;;15.53;71.73;97403.63;10530253;28;20138;-75
2022/05/24 23:13:48;;;;;;;1.38;0.40;;;;;;;15.51;72.19;97411.97;10509552;28;20048;-76
2022/05/24 23:19:37;;;;;;;3.88;0.70;;;;;;;15.50;72.34;97421.78;10519527;28;20508;-76
2022/05/24 23:25:26;;;;;;;2.08;0.95;;;;;;;15.52;72.36;97418.34;10508803;28;20113;-76
2022/05/24 23:31:14;;;;;;;5.10;0.70;;;;;;;15.54;72.29;97424.78;10529027;28;20385;-76
2022/05/24 23:36:35;;;;;;;2.47;0.63;;;;;;;15.56;72.17;97416.44;10498156;28;20094;-75
2022/05/24 23:42:24;;;;;;;2.53;0.85;;;;;;;15.56;72.17;97405.19;10519506;28;20044;-75
2022/05/24 23:47:45;;;;;;;3.28;1.00;;;;;;;15.55;72.15;97417.06;10524634;28;20044;-75
2022/05/24 23:53:34;;;;;;;3.67;0.70;;;;;;;15.58;72.08;97429.84;10507575;28;20443;-76
2022/05/24 23:58:55;;;;;;;1.90;0.90;;;;;;;15.53;72.27;97437.38;10480755;28;20045;-75
